createdAt,value
2022-08-28T00:01:24.061Z,101234.41
2022-08-28T00:03:27.518Z,101235.31
2022-08-28T00:05:36.173Z,101236.25
2022-08-28T00:07:42.342Z,101233.56
2022-08-28T00:09:49.075Z,101236.22
2022-08-28T00:11:52.497Z,101238.91
2022-08-28T00:13:56.813Z,101244.22
2022-08-28T00:16:02.235Z,101236.25
2022-08-28T00:18:07.413Z,101240.66
2022-08-28T00:20:13.706Z,101253.06
2022-08-28T00:22:18.643Z,101242.44
2022-08-28T00:24:22.266Z,101242.44
2022-08-28T00:26:43.362Z,101245.97
2022-08-28T00:28:46.778Z,101244.22
2022-08-28T00:30:52.145Z,101245.09
2022-08-28T00:32:58.310Z,101246.88
2022-08-28T00:35:01.862Z,101252.16
2022-08-28T00:37:05.324Z,101257.47
2022-08-28T00:39:10.650Z,101253.03
2022-08-28T00:41:15.119Z,101249.47
2022-08-28T00:43:27.642Z,101242.41
2022-08-28T00:45:35.969Z,101251.22
2022-08-28T00:47:42.685Z,101253.03
2022-08-28T00:49:50.480Z,101258.28
2022-08-28T00:52:11.327Z,101256.53
2022-08-28T00:54:19.126Z,101260.94
2022-08-28T00:56:23.058Z,101246.78
2022-08-28T00:58:26.491Z,101252.09
2022-08-28T01:00:36.090Z,101259.22
2022-08-28T01:02:39.765Z,101265.38
2022-08-28T01:04:43.839Z,101268.06
2022-08-28T01:06:51.310Z,101253.91
2022-08-28T01:08:55.297Z,101256.63
2022-08-28T01:11:05.567Z,101254.81
2022-08-28T01:13:09.044Z,101275.16
2022-08-28T01:15:17.480Z,101270.72
2022-08-28T01:17:24.327Z,101271.59
2022-08-28T01:19:32.570Z,101275.16
2022-08-28T01:21:43.916Z,101272.47
2022-08-28T01:23:54.857Z,101262.78
2022-08-28T01:26:00.206Z,101274.25
2022-08-28T01:28:08.547Z,101257.53
2022-08-28T01:30:15.424Z,101277.81
2022-08-28T01:32:32.171Z,101273.41
2022-08-28T01:34:36.787Z,101276.94
2022-08-28T01:36:41.510Z,101239.00
2022-08-28T01:38:49.251Z,101274.31
2022-08-28T01:40:57.206Z,101285.78
2022-08-28T01:43:10.054Z,101284.00
2022-08-28T01:45:17.991Z,101285.78
2022-08-28T01:47:22.620Z,101271.69
2022-08-28T01:49:29.264Z,101284.00
2022-08-28T01:51:33.022Z,101273.41
2022-08-28T01:53:40.119Z,101274.31
2022-08-28T01:55:44.447Z,101273.41
2022-08-28T01:57:52.951Z,101270.78
2022-08-28T01:59:56.432Z,101270.78
2022-08-28T02:02:00.161Z,101269.00
2022-08-28T02:04:04.955Z,101267.25
2022-08-28T02:06:08.566Z,101269.03
2022-08-28T02:08:12.218Z,101263.72
2022-08-28T02:10:16.970Z,101266.38
2022-08-28T02:12:20.648Z,101274.31
2022-08-28T02:14:28.016Z,101276.97
2022-08-28T02:16:31.609Z,101278.72
2022-08-28T02:18:35.309Z,101284.00
2022-08-28T02:20:38.870Z,101278.72
2022-08-28T02:22:42.496Z,101281.34
2022-08-28T02:24:46.195Z,101287.50
2022-08-28T02:26:49.637Z,101297.25
2022-08-28T02:28:53.079Z,101296.34
2022-08-28T02:30:57.958Z,101291.03
2022-08-28T02:33:01.412Z,101296.34
2022-08-28T02:35:05.469Z,101299.88
2022-08-28T02:37:15.502Z,101299.00
2022-08-28T02:39:18.894Z,101303.41
2022-08-28T02:41:22.476Z,101306.06
2022-08-28T02:43:26.604Z,101304.28
2022-08-28T02:45:30.137Z,101299.88
2022-08-28T02:47:35.860Z,101298.09
2022-08-28T02:49:40.025Z,101295.47
2022-08-28T02:51:44.097Z,101294.56
2022-08-28T02:53:47.563Z,101302.53
2022-08-28T02:55:51.568Z,101301.66
2022-08-28T02:57:55.556Z,101294.56
2022-08-28T02:59:59.977Z,101265.44
2022-08-28T03:02:06.766Z,101292.78
2022-08-28T03:04:11.875Z,101292.75
2022-08-28T03:06:15.600Z,101291.88
2022-08-28T03:08:19.029Z,101293.63
2022-08-28T03:10:23.132Z,101302.47
2022-08-28T03:12:26.732Z,101300.66
2022-08-28T03:14:30.919Z,101296.25
2022-08-28T03:16:35.481Z,101302.38
2022-08-28T03:18:39.611Z,101305.03
2022-08-28T03:20:44.898Z,101303.28
2022-08-28T03:23:14.453Z,101308.56
2022-08-28T03:25:18.201Z,101304.16
2022-08-28T03:27:21.651Z,101306.78
2022-08-28T03:29:25.139Z,101312.06
2022-08-28T03:31:33.739Z,101316.44
2022-08-28T03:33:37.867Z,101308.47
2022-08-28T03:35:47.382Z,101314.66
2022-08-28T03:37:50.802Z,101324.34
2022-08-28T03:39:54.336Z,101310.19
2022-08-28T03:41:57.887Z,101320.78
2022-08-28T03:44:02.822Z,101328.72
2022-08-28T03:46:07.693Z,101327.78
2022-08-28T03:48:11.299Z,101326.84
2022-08-28T03:50:15.080Z,101325.97
2022-08-28T03:52:19.877Z,101333.00
2022-08-28T03:54:23.443Z,101329.44
2022-08-28T03:56:28.786Z,101341.75
2022-08-28T03:58:32.426Z,101343.47
2022-08-28T04:00:36.090Z,101341.69
2022-08-28T04:02:39.571Z,101333.78
2022-08-28T04:04:42.949Z,101342.56
2022-08-28T04:06:46.498Z,101346.06
2022-08-28T04:08:51.841Z,101338.16
2022-08-28T04:10:55.514Z,101351.44
2022-08-28T04:12:58.947Z,101346.97
2022-08-28T04:15:02.566Z,101351.38
2022-08-28T04:17:11.268Z,101348.69
2022-08-28T04:19:17.590Z,101346.00
2022-08-28T04:21:23.569Z,101338.91
2022-08-28T04:23:27.278Z,101339.78
2022-08-28T04:25:32.674Z,101346.88
2022-08-28T04:27:36.377Z,101348.72
2022-08-28T04:29:39.750Z,101346.94
2022-08-28T04:31:43.247Z,101356.63
2022-08-28T04:33:46.726Z,101355.84
2022-08-28T04:35:52.176Z,101355.78
2022-08-28T04:37:58.703Z,101357.47
2022-08-28T04:40:02.776Z,101362.78
2022-08-28T04:42:07.797Z,101364.50
2022-08-28T04:44:11.518Z,101341.50
2022-08-28T04:46:15.987Z,101373.19
2022-08-28T04:48:19.867Z,101372.25
2022-08-28T04:50:23.299Z,101373.09
2022-08-28T04:52:27.479Z,101375.66
2022-08-28T04:54:32.731Z,101354.41
2022-08-28T04:56:36.060Z,101373.16
2022-08-28T04:58:42.444Z,101374.91
2022-08-28T05:00:48.605Z,101379.41
2022-08-28T05:02:52.303Z,101378.59
2022-08-28T05:04:55.960Z,101388.28
2022-08-28T05:06:59.386Z,101388.34
2022-08-28T05:09:05.368Z,101389.19
2022-08-28T05:11:14.617Z,101389.19
2022-08-28T05:13:36.969Z,101367.00
2022-08-28T05:15:42.345Z,101392.56
2022-08-28T05:17:47.682Z,101391.59
2022-08-28T05:19:52.277Z,101398.56
2022-08-28T05:21:56.176Z,101392.41
2022-08-28T05:23:59.598Z,101395.88
2022-08-28T05:26:03.079Z,101401.19
2022-08-28T05:28:09.860Z,101399.41
2022-08-28T05:30:15.821Z,101397.56
2022-08-28T05:32:20.747Z,101408.94
2022-08-28T05:34:24.377Z,101408.09
2022-08-28T05:36:32.452Z,101416.00
2022-08-28T05:38:37.365Z,101415.06
2022-08-28T05:40:44.936Z,101405.44
2022-08-28T05:42:48.629Z,101407.25
2022-08-28T05:44:54.706Z,101409.00
2022-08-28T05:46:58.445Z,101412.47
2022-08-28T05:49:06.621Z,101420.34
2022-08-28T05:51:14.843Z,101423.00
2022-08-28T05:53:18.291Z,101420.28
2022-08-28T05:55:21.811Z,101426.44
2022-08-28T05:57:25.232Z,101431.69
2022-08-28T05:59:28.630Z,101429.97
2022-08-28T06:01:33.989Z,101433.59
2022-08-28T06:03:38.452Z,101435.31
2022-08-28T06:05:43.797Z,101431.09
2022-08-28T06:07:47.247Z,101434.78
2022-08-28T06:09:50.811Z,101434.81
2022-08-28T06:11:54.829Z,101425.16
2022-08-28T06:14:02.627Z,101430.47
2022-08-28T06:16:06.590Z,101436.69
2022-08-28T06:18:12.606Z,101434.94
2022-08-28T06:20:16.198Z,101446.31
2022-08-28T06:22:20.955Z,101442.81
2022-08-28T06:24:24.472Z,101440.28
2022-08-28T06:26:28.231Z,101436.66
2022-08-28T06:28:31.669Z,101441.03
2022-08-28T06:30:37.339Z,101445.47
2022-08-28T06:32:43.547Z,101456.19
2022-08-28T06:34:46.981Z,101455.22
2022-08-28T06:36:53.800Z,101455.25
2022-08-28T06:39:00.512Z,101458.91
2022-08-28T06:41:10.023Z,101457.25
2022-08-28T06:43:14.399Z,101457.31
2022-08-28T06:45:17.944Z,101461.75
2022-08-28T06:47:21.707Z,101467.03
2022-08-28T06:49:25.218Z,101468.75
2022-08-28T06:51:28.687Z,101464.31
2022-08-28T06:53:32.110Z,101464.41
2022-08-28T06:55:37.046Z,101462.63
2022-08-28T06:57:40.800Z,101464.41
2022-08-28T06:59:44.289Z,101458.16
2022-08-28T07:01:47.881Z,101462.53
2022-08-28T07:03:53.507Z,101446.66
2022-08-28T07:05:57.841Z,101451.06
2022-08-28T07:08:01.691Z,101457.22
2022-08-28T07:10:05.880Z,101459.06
2022-08-28T07:12:10.742Z,101460.94
2022-08-28T07:14:14.239Z,101468.94
2022-08-28T07:16:20.143Z,101461.03
2022-08-28T07:18:23.598Z,101466.28
2022-08-28T07:20:27.044Z,101469.81
2022-08-28T07:22:31.011Z,101471.47
2022-08-28T07:24:34.548Z,101478.50
2022-08-28T07:26:40.791Z,101481.22
2022-08-28T07:28:45.753Z,101475.00
2022-08-28T07:30:58.111Z,101480.38
2022-08-28T07:33:01.557Z,101477.81
2022-08-28T07:35:05.623Z,101474.38
2022-08-28T07:37:14.714Z,101475.25
2022-08-28T07:39:19.429Z,101476.25
2022-08-28T07:41:26.858Z,101472.72
2022-08-28T07:43:47.783Z,101476.19
2022-08-28T07:45:59.780Z,101478.75
2022-08-28T07:48:09.495Z,101485.72
2022-08-28T07:50:15.716Z,101493.66
2022-08-28T07:52:19.268Z,101489.31
2022-08-28T07:54:23.086Z,101494.63
2022-08-28T07:56:28.701Z,101492.00
2022-08-28T07:58:32.863Z,101490.25
2022-08-28T08:00:36.354Z,101496.41
2022-08-28T08:02:41.208Z,101500.81
2022-08-28T08:04:44.714Z,101491.25
2022-08-28T08:06:48.532Z,101494.88
2022-08-28T08:08:51.998Z,101499.34
2022-08-28T08:11:00.490Z,101458.66
2022-08-28T08:13:05.111Z,101492.22
2022-08-28T08:15:12.088Z,101500.16
2022-08-28T08:17:15.505Z,101502.84
2022-08-28T08:19:20.364Z,101499.34
2022-08-28T08:21:27.165Z,101500.25
2022-08-28T08:23:34.735Z,101501.13
2022-08-28T08:25:38.192Z,101497.63
2022-08-28T08:27:43.143Z,101502.88
2022-08-28T08:29:46.692Z,101504.63
2022-08-28T08:31:57.400Z,101485.22
2022-08-28T08:34:03.671Z,101503.78
2022-08-28T08:36:09.888Z,101485.28
2022-08-28T08:38:13.362Z,101502.97
2022-08-28T08:40:19.550Z,101506.53
2022-08-28T08:42:26.679Z,101502.97
2022-08-28T08:44:34.221Z,101507.38
2022-08-28T08:46:44.936Z,101509.97
2022-08-28T08:48:48.761Z,101502.91
2022-08-28T08:50:52.496Z,101508.19
2022-08-28T08:53:15.865Z,101508.19
2022-08-28T08:55:28.161Z,101495.81
2022-08-28T08:57:33.521Z,101506.47
2022-08-28T08:59:38.947Z,101504.72
2022-08-28T09:01:50.810Z,101504.72
2022-08-28T09:04:01.099Z,101509.16
2022-08-28T09:06:06.843Z,101510.94
2022-08-28T09:08:24.055Z,101509.16
2022-08-28T09:10:36.427Z,101517.13
2022-08-28T09:12:51.228Z,101505.63
2022-08-28T09:15:04.989Z,101510.94
2022-08-28T09:17:11.331Z,101520.63
2022-08-28T09:19:20.142Z,101510.06
2022-08-28T09:21:29.519Z,101507.38
2022-08-28T09:23:34.588Z,101514.44
2022-08-28T09:25:50.996Z,101519.75
2022-08-28T09:27:55.481Z,101520.63
2022-08-28T09:30:07.669Z,101521.53
2022-08-28T09:32:22.364Z,101525.91
2022-08-28T09:34:31.310Z,101519.72
2022-08-28T09:36:38.985Z,101525.03
2022-08-28T09:38:43.811Z,101519.69
2022-08-28T09:41:03.779Z,101518.78
2022-08-28T09:43:27.807Z,101517.81
2022-08-28T09:45:31.301Z,101518.69
2022-08-28T09:47:46.181Z,101508.09
2022-08-28T09:49:50.461Z,101509.88
2022-08-28T09:51:53.952Z,101516.00
2022-08-28T09:54:08.049Z,101511.56
2022-08-28T09:56:17.756Z,101506.19
2022-08-28T09:58:22.195Z,101504.38
2022-08-28T10:00:25.790Z,101506.13
2022-08-28T10:02:41.799Z,101511.41
2022-08-28T10:04:55.593Z,101510.50
2022-08-28T10:07:04.928Z,101498.06
2022-08-28T10:09:22.962Z,101491.69
2022-08-28T10:11:34.186Z,101504.94
2022-08-28T10:13:50.950Z,101499.56
2022-08-28T10:16:03.722Z,101501.31
2022-08-28T10:18:19.583Z,101500.34
2022-08-28T10:20:31.262Z,101491.50
2022-08-28T10:22:42.701Z,101500.22
2022-08-28T10:25:02.343Z,101502.03
2022-08-28T10:27:14.632Z,101504.53
2022-08-28T10:29:34.348Z,101510.66
2022-08-28T10:31:47.291Z,101513.31
2022-08-28T10:34:04.765Z,101510.53
2022-08-28T10:36:32.100Z,101512.25
2022-08-28T10:38:42.875Z,101515.78
2022-08-28T10:40:56.479Z,101475.06
2022-08-28T10:43:04.698Z,101500.56
2022-08-28T10:45:15.119Z,101500.38
2022-08-28T10:47:23.084Z,101510.97
2022-08-28T10:49:38.202Z,101515.38
2022-08-28T10:51:47.510Z,101505.63
2022-08-28T10:53:55.852Z,101503.72
2022-08-28T10:56:04.428Z,101509.69
2022-08-28T10:58:24.944Z,101497.91
2022-08-28T11:00:29.199Z,101509.50
2022-08-28T11:02:33.375Z,101505.84
2022-08-28T11:04:37.485Z,101502.38
2022-08-28T11:06:47.770Z,101478.41
2022-08-28T11:08:54.371Z,101506.28
2022-08-28T11:11:01.962Z,101509.63
2022-08-28T11:13:07.435Z,101502.31
2022-08-28T11:15:43.757Z,101496.72
2022-08-28T11:17:48.438Z,101453.41
2022-08-28T11:20:10.662Z,101498.44
2022-08-28T11:22:18.829Z,101495.00
2022-08-28T11:24:43.829Z,101490.50
2022-08-28T11:27:00.030Z,101496.94
2022-08-28T11:29:04.130Z,101485.56
2022-08-28T11:31:31.401Z,101497.75
2022-08-28T11:33:39.738Z,101491.31
2022-08-28T11:35:52.166Z,101498.84
2022-08-28T11:37:56.968Z,101505.72
2022-08-28T11:40:15.313Z,101504.25
2022-08-28T11:42:38.357Z,101505.09
2022-08-28T11:44:44.801Z,101491.88
2022-08-28T11:46:49.612Z,101491.88
2022-08-28T11:48:54.432Z,101495.09
2022-08-28T11:51:02.270Z,101503.34
2022-08-28T11:53:29.468Z,101501.56
2022-08-28T11:55:51.554Z,101449.50
2022-08-28T12:00:21.102Z,101495.44
2022-08-28T12:02:49.159Z,101489.38
2022-08-28T12:04:52.741Z,101486.72
2022-08-28T12:07:23.551Z,101494.28
2022-08-28T12:09:44.553Z,101491.16
2022-08-28T12:12:06.944Z,101490.16
2022-08-28T12:14:11.814Z,101485.47
2022-08-28T12:16:15.754Z,101489.41
2022-08-28T12:18:49.137Z,101499.38
2022-08-28T12:21:04.082Z,101485.13
2022-08-28T12:23:45.928Z,101476.81
2022-08-28T12:25:51.770Z,101485.72
2022-08-28T12:27:56.149Z,101480.38
2022-08-28T12:30:01.301Z,101476.09
2022-08-28T12:32:27.135Z,101486.22
2022-08-28T12:34:43.593Z,101480.72
2022-08-28T12:36:52.028Z,101480.19
2022-08-28T12:38:58.034Z,101493.28
2022-08-28T12:41:03.501Z,101483.00
2022-08-28T12:43:10.012Z,101476.03
2022-08-28T12:45:20.268Z,101479.66
2022-08-28T12:47:25.548Z,101465.59
2022-08-28T12:49:32.904Z,101463.63
2022-08-28T12:51:38.914Z,101473.63
2022-08-28T12:53:45.894Z,101467.41
2022-08-28T12:55:49.526Z,101473.34
2022-08-28T12:57:54.817Z,101474.16
2022-08-28T13:00:11.058Z,101468.50
2022-08-28T13:02:26.519Z,101454.19
2022-08-28T13:04:34.489Z,101467.00
2022-08-28T13:06:39.877Z,101467.38
2022-08-28T13:08:43.340Z,101469.22
2022-08-28T13:10:51.204Z,101468.06
2022-08-28T13:13:03.230Z,101463.28
2022-08-28T13:15:10.421Z,101460.97
2022-08-28T13:17:17.440Z,101462.53
2022-08-28T13:19:27.890Z,101455.94
2022-08-28T13:21:37.189Z,101457.47
2022-08-28T13:23:41.400Z,101447.63
2022-08-28T13:25:44.880Z,101450.31
2022-08-28T13:27:59.151Z,101452.06
2022-08-28T13:30:08.531Z,101439.66
2022-08-28T13:32:19.023Z,101445.34
2022-08-28T13:34:25.875Z,101440.50
2022-08-28T13:36:29.860Z,101452.50
2022-08-28T13:38:35.382Z,101439.00
2022-08-28T13:40:58.525Z,101436.22
2022-08-28T13:43:07.410Z,101438.78
2022-08-28T13:45:15.082Z,101439.22
2022-08-28T13:47:19.967Z,101448.31
2022-08-28T13:49:23.753Z,101440.16
2022-08-28T13:51:27.526Z,101444.47
2022-08-28T13:53:30.996Z,101435.31
2022-08-28T13:55:36.087Z,101433.44
2022-08-28T13:57:39.660Z,101434.22
2022-08-28T13:59:44.549Z,101433.06
2022-08-28T14:02:05.956Z,101425.56
2022-08-28T14:04:09.810Z,101397.34
2022-08-28T14:06:16.794Z,101427.22
2022-08-28T14:08:20.260Z,101426.34
2022-08-28T14:10:24.087Z,101418.97
2022-08-28T14:12:31.419Z,101418.47
2022-08-28T14:14:37.259Z,101413.44
2022-08-28T14:16:42.490Z,101407.38
2022-08-28T14:18:45.966Z,101413.78
2022-08-28T14:20:49.476Z,101408.38
2022-08-28T14:22:52.968Z,101407.06
2022-08-28T14:24:56.476Z,101411.47
2022-08-28T14:27:00.261Z,101407.53
2022-08-28T14:29:06.370Z,101420.44
2022-08-28T14:31:14.210Z,101411.38
2022-08-28T14:33:20.520Z,101410.75
2022-08-28T14:35:24.422Z,101412.13
2022-08-28T14:37:28.461Z,101408.34
2022-08-28T14:39:32.112Z,101409.75
2022-08-28T14:41:36.052Z,101404.06
2022-08-28T14:43:39.640Z,101401.28
2022-08-28T14:45:44.002Z,101407.97
2022-08-28T14:47:47.471Z,101400.81
2022-08-28T14:49:52.714Z,101396.22
2022-08-28T14:51:57.062Z,101419.16
2022-08-28T14:54:01.923Z,101404.63
2022-08-28T14:56:07.572Z,101400.47
2022-08-28T14:58:11.559Z,101412.03
2022-08-28T15:00:16.475Z,101408.31
2022-08-28T15:02:19.921Z,101416.81
2022-08-28T15:04:26.058Z,101402.91
2022-08-28T15:06:31.332Z,101409.38
2022-08-28T15:08:35.393Z,101404.31
2022-08-28T15:10:39.741Z,101402.88
2022-08-28T15:12:43.182Z,101404.09
2022-08-28T15:14:54.563Z,101396.09
2022-08-28T15:16:58.769Z,101399.94
2022-08-28T15:19:02.661Z,101401.16
2022-08-28T15:21:07.608Z,101399.09
2022-08-28T15:23:13.837Z,101399.69
2022-08-28T15:25:17.669Z,101363.91
2022-08-28T15:27:21.613Z,101400.88
2022-08-28T15:29:25.315Z,101383.28
2022-08-28T15:31:29.516Z,101384.19
2022-08-28T15:33:33.061Z,101400.94
2022-08-28T15:35:37.192Z,101391.44
2022-08-28T15:37:40.580Z,101391.63
2022-08-28T15:40:02.979Z,101398.91
2022-08-28T15:42:08.450Z,101397.22
2022-08-28T15:44:15.042Z,101396.38
2022-08-28T15:46:18.615Z,101404.41
2022-08-28T15:48:22.117Z,101400.88
2022-08-28T15:50:25.576Z,101391.03
2022-08-28T15:52:29.203Z,101392.47
2022-08-28T15:54:32.889Z,101384.28
2022-08-28T15:56:37.705Z,101397.13
2022-08-28T15:58:41.297Z,101396.97
2022-08-28T16:00:44.752Z,101392.25
2022-08-28T16:02:48.216Z,101384.53
2022-08-28T16:04:52.708Z,101380.09
2022-08-28T16:07:00.443Z,101390.22
2022-08-28T16:09:05.319Z,101393.81
2022-08-28T16:11:09.029Z,101384.78
2022-08-28T16:13:16.171Z,101393.31
2022-08-28T16:15:21.436Z,101386.16
2022-08-28T16:17:24.992Z,101385.81
2022-08-28T16:19:29.338Z,101379.47
2022-08-28T16:21:33.587Z,101384.78
2022-08-28T16:23:37.386Z,101373.47
2022-08-28T16:25:41.917Z,101376.78
2022-08-28T16:27:45.530Z,101386.34
2022-08-28T16:29:52.971Z,101386.41
2022-08-28T16:31:56.810Z,101386.53
2022-08-28T16:34:00.427Z,101381.16
2022-08-28T16:36:08.311Z,101382.97
2022-08-28T16:38:11.914Z,101383.19
2022-08-28T16:40:15.660Z,101381.41
2022-08-28T16:42:19.131Z,101385.09
2022-08-28T16:44:24.464Z,101374.06
2022-08-28T16:46:29.328Z,101367.53
2022-08-28T16:48:33.131Z,101337.00
2022-08-28T16:50:36.622Z,101381.75
2022-08-28T16:52:40.483Z,101382.63
2022-08-28T16:54:48.653Z,101385.09
2022-08-28T16:56:52.731Z,101390.06
2022-08-28T16:58:57.025Z,101384.94
2022-08-28T17:01:00.918Z,101386.16
2022-08-28T17:03:05.798Z,101377.31
2022-08-28T17:05:11.687Z,101383.00
2022-08-28T17:07:15.143Z,101377.75
2022-08-28T17:09:20.801Z,101372.47
2022-08-28T17:11:25.243Z,101375.34
2022-08-28T17:13:28.758Z,101376.88
2022-08-28T17:15:32.362Z,101372.31
2022-08-28T17:17:36.341Z,101379.03
2022-08-28T17:19:41.194Z,101384.69
2022-08-28T17:22:03.805Z,101396.50
2022-08-28T17:24:08.222Z,101389.69
2022-08-28T17:26:11.692Z,101383.44
2022-08-28T17:28:15.571Z,101382.38
2022-08-28T17:30:19.536Z,101385.22
2022-08-28T17:32:22.938Z,101380.88
2022-08-28T17:34:30.090Z,101384.88
2022-08-28T17:36:37.057Z,101370.00
2022-08-28T17:38:42.407Z,101386.88
2022-08-28T17:40:45.837Z,101387.91
2022-08-28T17:42:49.235Z,101387.38
2022-08-28T17:44:52.604Z,101395.63
2022-08-28T17:46:56.013Z,101394.97
2022-08-28T17:48:59.933Z,101398.81
2022-08-28T17:51:03.482Z,101405.22
2022-08-28T17:53:08.833Z,101398.97
2022-08-28T17:55:12.303Z,101400.81
2022-08-28T17:57:16.631Z,101388.44
2022-08-28T17:59:21.068Z,101404.31
2022-08-28T18:01:27.218Z,101391.28
2022-08-28T18:03:30.796Z,101394.81
2022-08-28T18:05:42.138Z,101400.16
2022-08-28T18:07:45.572Z,101405.63
2022-08-28T18:09:50.531Z,101409.28
2022-08-28T18:11:54.162Z,101403.19
2022-08-28T18:13:57.644Z,101395.25
2022-08-28T18:16:01.257Z,101409.34
2022-08-28T18:18:05.219Z,101402.13
2022-08-28T18:20:11.474Z,101405.66
2022-08-28T18:22:15.129Z,101400.63
2022-08-28T18:24:18.831Z,101415.78
2022-08-28T18:26:23.715Z,101407.19
2022-08-28T18:28:28.220Z,101415.28
2022-08-28T18:30:31.690Z,101424.41
2022-08-28T18:32:35.248Z,101406.91
2022-08-28T18:34:38.675Z,101417.41
2022-08-28T18:36:42.654Z,101426.28
2022-08-28T18:38:47.112Z,101432.47
2022-08-28T18:40:50.972Z,101414.94
2022-08-28T18:42:55.750Z,101426.41
2022-08-28T18:44:59.475Z,101432.59
2022-08-28T18:47:02.981Z,101423.66
2022-08-28T18:49:06.999Z,101435.31
2022-08-28T18:51:12.324Z,101434.28
2022-08-28T18:53:16.443Z,101445.94
2022-08-28T18:55:20.635Z,101446.94
2022-08-28T18:57:25.164Z,101450.59
2022-08-28T18:59:31.807Z,101456.03
2022-08-28T19:01:35.397Z,101442.00
2022-08-28T19:03:39.021Z,101466.91
2022-08-28T19:05:42.930Z,101433.59
2022-08-28T19:07:46.412Z,101466.22
2022-08-28T19:09:50.182Z,101481.38
2022-08-28T19:11:53.724Z,101473.41
2022-08-28T19:13:57.200Z,101477.91
2022-08-28T19:16:02.107Z,101488.50
2022-08-28T19:18:07.023Z,101476.84
2022-08-28T19:20:14.796Z,101483.97
2022-08-28T19:22:18.714Z,101462.88
2022-08-28T19:24:22.503Z,101485.81
2022-08-28T19:26:26.523Z,101479.72
2022-08-28T19:28:30.111Z,101485.84
2022-08-28T19:30:34.601Z,101486.66
2022-08-28T19:32:39.406Z,101491.13
2022-08-28T19:34:42.797Z,101486.63
2022-08-28T19:36:46.548Z,101485.94
2022-08-28T19:38:50.753Z,101486.97
2022-08-28T19:40:54.809Z,101496.81
2022-08-28T19:42:58.205Z,101496.88
2022-08-28T19:45:04.422Z,101494.34
2022-08-28T19:47:08.086Z,101503.19
2022-08-28T19:49:12.984Z,101495.25
2022-08-28T19:51:17.476Z,101482.88
2022-08-28T19:53:26.446Z,101505.88
2022-08-28T19:55:30.307Z,101504.94
2022-08-28T19:57:34.271Z,101502.34
2022-08-28T19:59:37.776Z,101503.25
2022-08-28T20:01:44.841Z,101508.50
2022-08-28T20:03:48.701Z,101517.34
2022-08-28T20:05:53.577Z,101514.75
2022-08-28T20:07:57.047Z,101520.84
2022-08-28T20:10:03.188Z,101513.84
2022-08-28T20:12:06.881Z,101524.34
2022-08-28T20:14:10.277Z,101531.28
2022-08-28T20:16:13.947Z,101530.28
2022-08-28T20:18:17.949Z,101530.19
2022-08-28T20:20:26.719Z,101537.25
2022-08-28T20:22:34.351Z,101528.69
2022-08-28T20:24:41.978Z,101522.38
2022-08-28T20:26:45.642Z,101536.38
2022-08-28T20:28:49.166Z,101531.22
2022-08-28T20:30:52.875Z,101531.19
2022-08-28T20:32:58.341Z,101541.97
2022-08-28T20:35:01.852Z,101537.59
2022-08-28T20:37:05.407Z,101532.28
2022-08-28T20:39:11.443Z,101532.31
2022-08-28T20:41:17.343Z,101533.13
2022-08-28T20:43:20.895Z,101534.81
2022-08-28T20:45:24.462Z,101541.94
2022-08-28T20:47:29.194Z,101538.28
2022-08-28T20:49:32.763Z,101548.03
2022-08-28T20:51:54.474Z,101547.94
2022-08-28T20:53:57.909Z,101545.25
2022-08-28T20:56:05.170Z,101543.53
2022-08-28T20:58:08.598Z,101557.69
2022-08-28T21:00:13.893Z,101561.44
2022-08-28T21:02:19.691Z,101558.03
2022-08-28T21:04:23.305Z,101560.72
2022-08-28T21:06:26.755Z,101554.38
2022-08-28T21:08:30.161Z,101564.97
2022-08-28T21:10:33.634Z,101572.13
2022-08-28T21:12:39.973Z,101569.53
2022-08-28T21:14:43.854Z,101565.97
2022-08-28T21:16:55.061Z,101570.50
2022-08-28T21:19:15.091Z,101574.97
2022-08-28T21:21:19.668Z,101571.44
2022-08-28T21:23:25.182Z,101569.78
2022-08-28T21:25:28.667Z,101568.16
2022-08-28T21:27:32.096Z,101576.03
2022-08-28T21:29:37.006Z,101575.16
2022-08-28T21:31:41.848Z,101583.97
2022-08-28T21:33:45.246Z,101583.97
2022-08-28T21:35:48.877Z,101573.38
2022-08-28T21:37:52.484Z,101586.66
2022-08-28T21:39:56.335Z,101583.97
2022-08-28T21:42:00.482Z,101588.47
2022-08-28T21:44:05.420Z,101582.38
2022-08-28T21:46:11.684Z,101595.75
2022-08-28T21:48:15.305Z,101578.97
2022-08-28T21:50:19.005Z,101592.25
2022-08-28T21:52:25.703Z,101595.78
2022-08-28T21:54:29.451Z,101591.34
2022-08-28T21:56:32.920Z,101592.25
2022-08-28T21:58:38.101Z,101589.59
2022-08-28T22:00:41.525Z,101598.41
2022-08-28T22:02:46.894Z,101578.97
2022-08-28T22:04:50.457Z,101584.25
2022-08-28T22:06:53.898Z,101593.09
2022-08-28T22:08:58.076Z,101597.47
2022-08-28T22:11:01.624Z,101599.22
2022-08-28T22:13:05.137Z,101593.91
2022-08-28T22:15:09.087Z,101598.28
2022-08-28T22:17:15.018Z,101597.44
2022-08-28T22:19:20.169Z,101605.34
2022-08-28T22:21:43.222Z,101602.72
2022-08-28T22:23:48.003Z,101609.78
2022-08-28T22:25:51.467Z,101577.94
2022-08-28T22:27:54.909Z,101602.75
2022-08-28T22:29:58.612Z,101604.56
2022-08-28T22:32:02.041Z,101608.09
2022-08-28T22:34:06.095Z,101612.50
2022-08-28T22:36:11.275Z,101601.91
2022-08-28T22:38:15.504Z,101608.06
2022-08-28T22:40:20.148Z,101604.53
2022-08-28T22:42:23.616Z,101604.53
2022-08-28T22:44:27.197Z,101597.44
2022-08-28T22:46:31.245Z,101593.06
2022-08-28T22:48:36.998Z,101604.56
2022-08-28T22:50:40.421Z,101599.25
2022-08-28T22:52:47.405Z,101598.38
2022-08-28T22:54:53.043Z,101596.53
2022-08-28T22:56:56.717Z,101601.88
2022-08-28T22:59:00.245Z,101603.66
2022-08-28T23:01:08.139Z,101594.81
2022-08-28T23:03:11.894Z,101593.91
2022-08-28T23:05:15.578Z,101599.19
2022-08-28T23:07:19.130Z,101599.19
2022-08-28T23:09:24.025Z,101607.13
2022-08-28T23:11:27.610Z,101597.34
2022-08-28T23:13:32.765Z,101582.34
2022-08-28T23:15:36.259Z,101600.00
2022-08-28T23:17:40.996Z,101600.00
2022-08-28T23:19:44.595Z,101584.97
2022-08-28T23:21:51.203Z,101597.31
2022-08-28T23:23:55.496Z,101600.81
2022-08-28T23:26:00.324Z,101597.22
2022-08-28T23:28:06.582Z,101603.41
2022-08-28T23:30:10.868Z,101599.81
2022-08-28T23:32:15.033Z,101592.69
2022-08-28T23:34:18.499Z,101572.34
2022-08-28T23:36:22.413Z,101573.22
2022-08-28T23:38:27.535Z,101596.25
2022-08-28T23:40:33.039Z,101596.22
2022-08-28T23:42:38.050Z,101580.31
2022-08-28T23:44:41.755Z,101592.66
2022-08-28T23:46:45.575Z,101606.75
2022-08-28T23:48:49.951Z,101602.38
2022-08-28T23:50:53.804Z,101598.84
2022-08-28T23:52:58.441Z,101599.69
2022-08-28T23:55:02.520Z,101596.19
2022-08-28T23:57:06.974Z,101605.91
2022-08-28T23:59:12.100Z,101605.84
